sensor_id;sensor_type;location;lat;lon;timestamp;P1;durP1;ratioP1;P2;durP2;ratioP2
57297;SDS011;43147;50.972;18.210;2022-08-23T00:01:52;47.20;;;40.40;;
57297;SDS011;43147;50.972;18.210;2022-08-23T00:04:20;58.10;;;44.10;;
57297;SDS011;43147;50.972;18.210;2022-08-23T00:06:51;52.00;;;43.80;;
57297;SDS011;43147;50.972;18.210;2022-08-23T00:09:21;57.40;;;45.90;;
57297;SDS011;43147;50.972;18.210;2022-08-23T00:11:50;53.50;;;44.80;;
57297;SDS011;43147;50.972;18.210;2022-08-23T00:14:25;56.70;;;45.60;;
57297;SDS011;43147;50.972;18.210;2022-08-23T00:16:53;63.30;;;46.20;;
57297;SDS011;43147;50.972;18.210;2022-08-23T00:19:21;60.70;;;44.80;;
57297;SDS011;43147;50.972;18.210;2022-08-23T00:21:48;59.00;;;44.30;;
57297;SDS011;43147;50.972;18.210;2022-08-23T00:24:15;65.00;;;44.90;;
57297;SDS011;43147;50.972;18.210;2022-08-23T00:26:48;52.00;;;42.10;;
57297;SDS011;43147;50.972;18.210;2022-08-23T00:29:17;55.70;;;45.30;;
57297;SDS011;43147;50.972;18.210;2022-08-23T00:31:43;55.90;;;43.80;;
57297;SDS011;43147;50.972;18.210;2022-08-23T00:34:10;48.40;;;42.20;;
57297;SDS011;43147;50.972;18.210;2022-08-23T00:36:37;53.30;;;43.60;;
57297;SDS011;43147;50.972;18.210;2022-08-23T00:39:04;61.60;;;46.80;;
57297;SDS011;43147;50.972;18.210;2022-08-23T00:41:30;57.80;;;45.60;;
57297;SDS011;43147;50.972;18.210;2022-08-23T00:43:56;59.90;;;47.00;;
57297;SDS011;43147;50.972;18.210;2022-08-23T00:46:46;56.30;;;46.10;;
57297;SDS011;43147;50.972;18.210;2022-08-23T00:49:32;58.80;;;46.30;;
57297;SDS011;43147;50.972;18.210;2022-08-23T00:52:00;56.00;;;47.10;;
57297;SDS011;43147;50.972;18.210;2022-08-23T00:54:31;68.30;;;50.10;;
57297;SDS011;43147;50.972;18.210;2022-08-23T00:56:57;74.80;;;49.70;;
57297;SDS011;43147;50.972;18.210;2022-08-23T00:59:25;63.30;;;49.80;;
57297;SDS011;43147;50.972;18.210;2022-08-23T01:01:53;62.50;;;49.50;;
57297;SDS011;43147;50.972;18.210;2022-08-23T01:04:18;59.40;;;47.30;;
57297;SDS011;43147;50.972;18.210;2022-08-23T01:09:20;74.20;;;53.00;;
57297;SDS011;43147;50.972;18.210;2022-08-23T01:17:07;61.50;;;49.10;;
57297;SDS011;43147;50.972;18.210;2022-08-23T01:19:37;67.30;;;49.70;;
57297;SDS011;43147;50.972;18.210;2022-08-23T01:24:53;62.70;;;52.50;;
57297;SDS011;43147;50.972;18.210;2022-08-23T01:27:19;71.20;;;54.70;;
57297;SDS011;43147;50.972;18.210;2022-08-23T01:29:44;68.80;;;54.10;;
57297;SDS011;43147;50.972;18.210;2022-08-23T01:32:10;71.30;;;54.10;;
57297;SDS011;43147;50.972;18.210;2022-08-23T01:34:37;65.80;;;51.60;;
57297;SDS011;43147;50.972;18.210;2022-08-23T01:37:05;62.20;;;50.10;;
57297;SDS011;43147;50.972;18.210;2022-08-23T01:39:32;63.60;;;49.50;;
57297;SDS011;43147;50.972;18.210;2022-08-23T01:41:59;62.00;;;48.20;;
57297;SDS011;43147;50.972;18.210;2022-08-23T01:44:24;65.40;;;48.10;;
57297;SDS011;43147;50.972;18.210;2022-08-23T01:46:51;64.60;;;49.30;;
57297;SDS011;43147;50.972;18.210;2022-08-23T01:49:16;62.00;;;48.20;;
57297;SDS011;43147;50.972;18.210;2022-08-23T01:51:42;61.40;;;49.10;;
57297;SDS011;43147;50.972;18.210;2022-08-23T01:54:08;58.20;;;46.10;;
57297;SDS011;43147;50.972;18.210;2022-08-23T01:56:34;59.60;;;45.20;;
57297;SDS011;43147;50.972;18.210;2022-08-23T01:59:00;55.10;;;45.10;;
57297;SDS011;43147;50.972;18.210;2022-08-23T02:01:26;56.60;;;42.10;;
57297;SDS011;43147;50.972;18.210;2022-08-23T02:03:51;50.80;;;42.40;;
57297;SDS011;43147;50.972;18.210;2022-08-23T02:06:17;49.80;;;41.50;;
57297;SDS011;43147;50.972;18.210;2022-08-23T02:08:43;47.30;;;41.70;;
57297;SDS011;43147;50.972;18.210;2022-08-23T02:11:33;52.70;;;42.20;;
57297;SDS011;43147;50.972;18.210;2022-08-23T02:14:03;52.70;;;44.20;;
57297;SDS011;43147;50.972;18.210;2022-08-23T02:16:32;52.50;;;43.60;;
57297;SDS011;43147;50.972;18.210;2022-08-23T02:19:01;51.40;;;41.90;;
57297;SDS011;43147;50.972;18.210;2022-08-23T02:21:29;48.90;;;42.90;;
57297;SDS011;43147;50.972;18.210;2022-08-23T02:23:58;54.00;;;43.60;;
57297;SDS011;43147;50.972;18.210;2022-08-23T02:26:25;54.20;;;45.00;;
57297;SDS011;43147;50.972;18.210;2022-08-23T02:28:51;55.80;;;47.30;;
57297;SDS011;43147;50.972;18.210;2022-08-23T02:31:18;56.80;;;46.70;;
57297;SDS011;43147;50.972;18.210;2022-08-23T02:33:45;58.40;;;46.10;;
57297;SDS011;43147;50.972;18.210;2022-08-23T02:36:10;55.60;;;47.10;;
57297;SDS011;43147;50.972;18.210;2022-08-23T02:38:37;57.90;;;47.60;;
57297;SDS011;43147;50.972;18.210;2022-08-23T02:41:03;62.90;;;49.20;;
57297;SDS011;43147;50.972;18.210;2022-08-23T02:43:32;61.60;;;49.30;;
57297;SDS011;43147;50.972;18.210;2022-08-23T02:45:58;59.00;;;47.70;;
57297;SDS011;43147;50.972;18.210;2022-08-23T02:48:24;59.70;;;48.80;;
57297;SDS011;43147;50.972;18.210;2022-08-23T02:50:50;59.10;;;48.20;;
57297;SDS011;43147;50.972;18.210;2022-08-23T02:53:16;64.60;;;49.80;;
57297;SDS011;43147;50.972;18.210;2022-08-23T02:55:45;60.40;;;47.90;;
57297;SDS011;43147;50.972;18.210;2022-08-23T02:58:11;63.70;;;51.00;;
57297;SDS011;43147;50.972;18.210;2022-08-23T03:00:37;68.10;;;51.10;;
57297;SDS011;43147;50.972;18.210;2022-08-23T03:03:03;61.10;;;50.50;;
57297;SDS011;43147;50.972;18.210;2022-08-23T03:05:29;65.10;;;51.00;;
57297;SDS011;43147;50.972;18.210;2022-08-23T03:07:56;59.00;;;49.90;;
57297;SDS011;43147;50.972;18.210;2022-08-23T03:10:21;59.10;;;49.80;;
57297;SDS011;43147;50.972;18.210;2022-08-23T03:12:47;70.80;;;51.70;;
57297;SDS011;43147;50.972;18.210;2022-08-23T03:15:14;63.20;;;49.80;;
57297;SDS011;43147;50.972;18.210;2022-08-23T03:17:39;58.40;;;49.80;;
57297;SDS011;43147;50.972;18.210;2022-08-23T03:20:05;66.40;;;51.00;;
57297;SDS011;43147;50.972;18.210;2022-08-23T03:22:32;64.60;;;51.70;;
57297;SDS011;43147;50.972;18.210;2022-08-23T03:24:57;60.60;;;51.10;;
57297;SDS011;43147;50.972;18.210;2022-08-23T03:27:23;63.20;;;49.70;;
57297;SDS011;43147;50.972;18.210;2022-08-23T03:29:49;58.10;;;48.10;;
57297;SDS011;43147;50.972;18.210;2022-08-23T03:32:15;58.10;;;48.10;;
57297;SDS011;43147;50.972;18.210;2022-08-23T03:34:41;57.70;;;49.40;;
57297;SDS011;43147;50.972;18.210;2022-08-23T03:37:06;64.00;;;50.10;;
57297;SDS011;43147;50.972;18.210;2022-08-23T03:39:32;66.40;;;49.30;;
57297;SDS011;43147;50.972;18.210;2022-08-23T03:41:58;59.00;;;50.00;;
57297;SDS011;43147;50.972;18.210;2022-08-23T03:44:24;64.80;;;48.80;;
57297;SDS011;43147;50.972;18.210;2022-08-23T03:46:49;64.00;;;49.30;;
57297;SDS011;43147;50.972;18.210;2022-08-23T03:49:15;59.60;;;49.20;;
57297;SDS011;43147;50.972;18.210;2022-08-23T03:51:40;57.60;;;48.60;;
57297;SDS011;43147;50.972;18.210;2022-08-23T03:54:06;55.60;;;46.50;;
57297;SDS011;43147;50.972;18.210;2022-08-23T03:56:33;60.40;;;46.90;;
57297;SDS011;43147;50.972;18.210;2022-08-23T03:59:05;59.80;;;46.80;;
57297;SDS011;43147;50.972;18.210;2022-08-23T04:01:32;55.50;;;48.10;;
57297;SDS011;43147;50.972;18.210;2022-08-23T04:03:58;60.80;;;47.80;;
57297;SDS011;43147;50.972;18.210;2022-08-23T04:06:24;55.50;;;47.50;;
57297;SDS011;43147;50.972;18.210;2022-08-23T04:08:52;60.20;;;48.70;;
57297;SDS011;43147;50.972;18.210;2022-08-23T04:11:19;58.60;;;46.80;;
57297;SDS011;43147;50.972;18.210;2022-08-23T04:13:45;56.20;;;45.70;;
57297;SDS011;43147;50.972;18.210;2022-08-23T04:16:11;57.60;;;47.10;;
57297;SDS011;43147;50.972;18.210;2022-08-23T04:18:38;55.80;;;45.00;;
57297;SDS011;43147;50.972;18.210;2022-08-23T04:21:05;55.80;;;46.30;;
57297;SDS011;43147;50.972;18.210;2022-08-23T04:23:35;50.10;;;44.40;;
57297;SDS011;43147;50.972;18.210;2022-08-23T04:26:01;50.20;;;41.30;;
57297;SDS011;43147;50.972;18.210;2022-08-23T04:28:30;47.00;;;41.40;;
57297;SDS011;43147;50.972;18.210;2022-08-23T04:30:57;49.00;;;42.60;;
57297;SDS011;43147;50.972;18.210;2022-08-23T04:33:25;49.40;;;42.70;;
57297;SDS011;43147;50.972;18.210;2022-08-23T04:35:51;47.50;;;41.80;;
57297;SDS011;43147;50.972;18.210;2022-08-23T04:38:17;47.00;;;41.90;;
57297;SDS011;43147;50.972;18.210;2022-08-23T04:40:42;45.20;;;39.30;;
57297;SDS011;43147;50.972;18.210;2022-08-23T04:43:26;47.90;;;40.60;;
57297;SDS011;43147;50.972;18.210;2022-08-23T04:45:52;44.90;;;39.90;;
57297;SDS011;43147;50.972;18.210;2022-08-23T04:48:18;48.10;;;38.00;;
57297;SDS011;43147;50.972;18.210;2022-08-23T04:50:43;41.10;;;36.80;;
57297;SDS011;43147;50.972;18.210;2022-08-23T04:53:09;48.10;;;39.30;;
57297;SDS011;43147;50.972;18.210;2022-08-23T04:55:36;43.50;;;38.10;;
57297;SDS011;43147;50.972;18.210;2022-08-23T04:58:03;50.00;;;37.90;;
57297;SDS011;43147;50.972;18.210;2022-08-23T05:00:30;43.20;;;36.40;;
57297;SDS011;43147;50.972;18.210;2022-08-23T05:02:55;40.90;;;35.70;;
57297;SDS011;43147;50.972;18.210;2022-08-23T05:05:21;41.70;;;35.70;;
57297;SDS011;43147;50.972;18.210;2022-08-23T05:07:47;37.80;;;33.70;;
57297;SDS011;43147;50.972;18.210;2022-08-23T05:10:13;37.10;;;33.20;;
57297;SDS011;43147;50.972;18.210;2022-08-23T05:12:40;37.90;;;32.00;;
57297;SDS011;43147;50.972;18.210;2022-08-23T05:15:06;44.30;;;32.20;;
57297;SDS011;43147;50.972;18.210;2022-08-23T05:17:33;35.40;;;31.70;;
57297;SDS011;43147;50.972;18.210;2022-08-23T05:20:00;35.60;;;31.90;;
57297;SDS011;43147;50.972;18.210;2022-08-23T05:22:26;41.40;;;33.50;;
57297;SDS011;43147;50.972;18.210;2022-08-23T05:24:53;34.60;;;30.70;;
57297;SDS011;43147;50.972;18.210;2022-08-23T05:27:18;35.20;;;31.50;;
57297;SDS011;43147;50.972;18.210;2022-08-23T05:29:44;32.80;;;29.20;;
57297;SDS011;43147;50.972;18.210;2022-08-23T05:32:11;34.60;;;29.20;;
57297;SDS011;43147;50.972;18.210;2022-08-23T05:34:38;31.20;;;28.20;;
57297;SDS011;43147;50.972;18.210;2022-08-23T05:37:03;29.30;;;25.10;;
57297;SDS011;43147;50.972;18.210;2022-08-23T05:39:29;29.60;;;26.50;;
57297;SDS011;43147;50.972;18.210;2022-08-23T05:41:55;31.40;;;26.70;;
57297;SDS011;43147;50.972;18.210;2022-08-23T05:44:20;27.00;;;24.00;;
57297;SDS011;43147;50.972;18.210;2022-08-23T05:46:46;30.20;;;25.90;;
57297;SDS011;43147;50.972;18.210;2022-08-23T05:49:11;29.60;;;25.60;;
57297;SDS011;43147;50.972;18.210;2022-08-23T05:51:37;28.20;;;24.90;;
57297;SDS011;43147;50.972;18.210;2022-08-23T05:54:04;28.30;;;25.50;;
57297;SDS011;43147;50.972;18.210;2022-08-23T05:56:32;24.00;;;21.40;;
57297;SDS011;43147;50.972;18.210;2022-08-23T05:59:00;21.60;;;19.50;;
57297;SDS011;43147;50.972;18.210;2022-08-23T06:01:29;20.60;;;18.70;;
57297;SDS011;43147;50.972;18.210;2022-08-23T06:03:58;20.10;;;18.00;;
57297;SDS011;43147;50.972;18.210;2022-08-23T06:06:24;18.90;;;17.10;;
57297;SDS011;43147;50.972;18.210;2022-08-23T06:08:51;18.80;;;16.80;;
57297;SDS011;43147;50.972;18.210;2022-08-23T06:11:19;18.20;;;16.40;;
57297;SDS011;43147;50.972;18.210;2022-08-23T06:13:47;18.50;;;16.70;;
57297;SDS011;43147;50.972;18.210;2022-08-23T06:16:16;19.50;;;17.50;;
57297;SDS011;43147;50.972;18.210;2022-08-23T06:18:43;21.70;;;19.40;;
57297;SDS011;43147;50.972;18.210;2022-08-23T06:21:10;19.60;;;17.70;;
57297;SDS011;43147;50.972;18.210;2022-08-23T06:23:37;22.00;;;18.40;;
57297;SDS011;43147;50.972;18.210;2022-08-23T06:26:13;21.90;;;19.80;;
57297;SDS011;43147;50.972;18.210;2022-08-23T06:28:41;21.60;;;19.70;;
57297;SDS011;43147;50.972;18.210;2022-08-23T06:31:07;23.80;;;21.30;;
57297;SDS011;43147;50.972;18.210;2022-08-23T06:33:33;22.70;;;20.30;;
57297;SDS011;43147;50.972;18.210;2022-08-23T06:36:00;25.70;;;21.40;;
57297;SDS011;43147;50.972;18.210;2022-08-23T06:38:31;25.40;;;22.50;;
57297;SDS011;43147;50.972;18.210;2022-08-23T06:40:59;25.00;;;21.60;;
57297;SDS011;43147;50.972;18.210;2022-08-23T06:43:28;24.30;;;21.80;;
57297;SDS011;43147;50.972;18.210;2022-08-23T06:45:55;23.80;;;21.50;;
57297;SDS011;43147;50.972;18.210;2022-08-23T06:48:30;23.60;;;21.20;;
57297;SDS011;43147;50.972;18.210;2022-08-23T06:50:55;21.10;;;19.00;;
57297;SDS011;43147;50.972;18.210;2022-08-23T06:53:21;22.30;;;20.10;;
57297;SDS011;43147;50.972;18.210;2022-08-23T06:55:46;22.40;;;19.90;;
57297;SDS011;43147;50.972;18.210;2022-08-23T06:58:12;24.70;;;19.80;;
57297;SDS011;43147;50.972;18.210;2022-08-23T07:00:37;20.40;;;18.30;;
57297;SDS011;43147;50.972;18.210;2022-08-23T07:03:03;21.60;;;19.50;;
57297;SDS011;43147;50.972;18.210;2022-08-23T07:05:29;21.60;;;19.60;;
57297;SDS011;43147;50.972;18.210;2022-08-23T07:07:55;20.80;;;19.00;;
57297;SDS011;43147;50.972;18.210;2022-08-23T07:10:21;21.80;;;19.50;;
57297;SDS011;43147;50.972;18.210;2022-08-23T07:12:49;21.80;;;19.60;;
57297;SDS011;43147;50.972;18.210;2022-08-23T07:15:14;22.80;;;20.60;;
57297;SDS011;43147;50.972;18.210;2022-08-23T07:17:40;26.00;;;23.50;;
57297;SDS011;43147;50.972;18.210;2022-08-23T07:20:06;26.80;;;24.00;;
57297;SDS011;43147;50.972;18.210;2022-08-23T07:22:32;25.50;;;23.00;;
57297;SDS011;43147;50.972;18.210;2022-08-23T07:24:58;28.10;;;24.90;;
57297;SDS011;43147;50.972;18.210;2022-08-23T07:27:24;27.90;;;25.10;;
57297;SDS011;43147;50.972;18.210;2022-08-23T07:29:49;27.90;;;25.20;;
57297;SDS011;43147;50.972;18.210;2022-08-23T07:32:15;28.90;;;26.00;;
57297;SDS011;43147;50.972;18.210;2022-08-23T07:34:41;27.80;;;24.90;;
57297;SDS011;43147;50.972;18.210;2022-08-23T07:37:06;32.20;;;27.80;;
57297;SDS011;43147;50.972;18.210;2022-08-23T07:39:32;29.70;;;26.60;;
57297;SDS011;43147;50.972;18.210;2022-08-23T07:42:00;28.70;;;25.40;;
57297;SDS011;43147;50.972;18.210;2022-08-23T07:44:28;29.40;;;26.20;;
57297;SDS011;43147;50.972;18.210;2022-08-23T07:46:54;29.40;;;26.60;;
57297;SDS011;43147;50.972;18.210;2022-08-23T07:49:21;29.00;;;26.00;;
57297;SDS011;43147;50.972;18.210;2022-08-23T07:51:48;27.60;;;24.90;;
57297;SDS011;43147;50.972;18.210;2022-08-23T07:54:15;26.20;;;23.40;;
57297;SDS011;43147;50.972;18.210;2022-08-23T07:56:42;25.90;;;22.90;;
57297;SDS011;43147;50.972;18.210;2022-08-23T07:59:08;24.60;;;22.10;;
57297;SDS011;43147;50.972;18.210;2022-08-23T08:01:34;24.10;;;21.60;;
57297;SDS011;43147;50.972;18.210;2022-08-23T08:04:00;25.20;;;22.80;;
57297;SDS011;43147;50.972;18.210;2022-08-23T08:06:29;23.90;;;21.50;;
57297;SDS011;43147;50.972;18.210;2022-08-23T08:08:58;23.90;;;21.40;;
57297;SDS011;43147;50.972;18.210;2022-08-23T08:11:27;24.60;;;22.30;;
57297;SDS011;43147;50.972;18.210;2022-08-23T08:13:55;25.10;;;22.40;;
57297;SDS011;43147;50.972;18.210;2022-08-23T08:16:23;23.90;;;21.50;;
57297;SDS011;43147;50.972;18.210;2022-08-23T08:18:58;24.40;;;22.20;;
57297;SDS011;43147;50.972;18.210;2022-08-23T08:21:25;26.00;;;23.30;;
57297;SDS011;43147;50.972;18.210;2022-08-23T08:23:51;25.20;;;22.70;;
57297;SDS011;43147;50.972;18.210;2022-08-23T08:26:19;24.40;;;22.20;;
57297;SDS011;43147;50.972;18.210;2022-08-23T08:28:46;27.10;;;23.40;;
57297;SDS011;43147;50.972;18.210;2022-08-23T08:31:12;25.60;;;23.00;;
57297;SDS011;43147;50.972;18.210;2022-08-23T08:33:39;25.70;;;23.20;;
57297;SDS011;43147;50.972;18.210;2022-08-23T08:36:04;25.30;;;23.00;;
57297;SDS011;43147;50.972;18.210;2022-08-23T08:38:32;24.10;;;21.50;;
57297;SDS011;43147;50.972;18.210;2022-08-23T08:41:10;21.90;;;19.90;;
57297;SDS011;43147;50.972;18.210;2022-08-23T08:46:22;25.10;;;22.60;;
57297;SDS011;43147;50.972;18.210;2022-08-23T08:48:54;23.60;;;21.30;;
57297;SDS011;43147;50.972;18.210;2022-08-23T08:51:32;23.30;;;20.40;;
57297;SDS011;43147;50.972;18.210;2022-08-23T08:54:05;25.30;;;22.80;;
57297;SDS011;43147;50.972;18.210;2022-08-23T08:56:35;24.30;;;21.60;;
57297;SDS011;43147;50.972;18.210;2022-08-23T08:59:04;24.10;;;21.70;;
57297;SDS011;43147;50.972;18.210;2022-08-23T09:01:32;27.10;;;22.30;;
57297;SDS011;43147;50.972;18.210;2022-08-23T09:03:59;23.90;;;21.50;;
57297;SDS011;43147;50.972;18.210;2022-08-23T09:06:28;23.90;;;21.30;;
57297;SDS011;43147;50.972;18.210;2022-08-23T09:20:17;25.90;;;23.20;;
57297;SDS011;43147;50.972;18.210;2022-08-23T09:22:46;27.60;;;23.40;;
57297;SDS011;43147;50.972;18.210;2022-08-23T09:25:15;29.80;;;24.90;;
57297;SDS011;43147;50.972;18.210;2022-08-23T09:27:43;34.20;;;26.10;;
57297;SDS011;43147;50.972;18.210;2022-08-23T09:30:11;31.90;;;27.00;;
57297;SDS011;43147;50.972;18.210;2022-08-23T09:32:39;28.80;;;25.70;;
57297;SDS011;43147;50.972;18.210;2022-08-23T09:35:15;29.50;;;25.40;;
57297;SDS011;43147;50.972;18.210;2022-08-23T09:37:53;34.80;;;26.60;;
57297;SDS011;43147;50.972;18.210;2022-08-23T09:43:05;31.00;;;26.50;;
57297;SDS011;43147;50.972;18.210;2022-08-23T09:45:35;27.20;;;24.40;;
57297;SDS011;43147;50.972;18.210;2022-08-23T09:48:02;31.00;;;27.70;;
57297;SDS011;43147;50.972;18.210;2022-08-23T09:50:30;34.10;;;26.40;;
57297;SDS011;43147;50.972;18.210;2022-08-23T09:53:00;29.90;;;25.00;;
57297;SDS011;43147;50.972;18.210;2022-08-23T09:55:50;32.90;;;28.00;;
57297;SDS011;43147;50.972;18.210;2022-08-23T09:58:17;33.80;;;26.40;;
57297;SDS011;43147;50.972;18.210;2022-08-23T10:00:43;32.40;;;28.30;;
57297;SDS011;43147;50.972;18.210;2022-08-23T10:03:20;44.50;;;31.30;;
57297;SDS011;43147;50.972;18.210;2022-08-23T10:05:54;36.50;;;31.00;;
57297;SDS011;43147;50.972;18.210;2022-08-23T10:08:31;36.90;;;30.20;;
57297;SDS011;43147;50.972;18.210;2022-08-23T10:13:46;36.30;;;31.30;;
57297;SDS011;43147;50.972;18.210;2022-08-23T10:19:43;38.40;;;30.30;;
57297;SDS011;43147;50.972;18.210;2022-08-23T10:28:14;39.50;;;32.10;;
57297;SDS011;43147;50.972;18.210;2022-08-23T10:38:58;52.20;;;34.60;;
57297;SDS011;43147;50.972;18.210;2022-08-23T10:44:26;52.80;;;39.40;;
57297;SDS011;43147;50.972;18.210;2022-08-23T10:50:11;48.10;;;37.70;;
57297;SDS011;43147;50.972;18.210;2022-08-23T10:52:42;52.90;;;37.80;;
57297;SDS011;43147;50.972;18.210;2022-08-23T10:55:14;46.50;;;37.70;;
57297;SDS011;43147;50.972;18.210;2022-08-23T10:57:59;50.30;;;37.30;;
57297;SDS011;43147;50.972;18.210;2022-08-23T11:00:26;45.60;;;36.20;;
57297;SDS011;43147;50.972;18.210;2022-08-23T11:02:57;45.60;;;36.70;;
57297;SDS011;43147;50.972;18.210;2022-08-23T11:05:32;46.90;;;38.30;;
57297;SDS011;43147;50.972;18.210;2022-08-23T11:08:06;49.90;;;39.00;;
57297;SDS011;43147;50.972;18.210;2022-08-23T11:15:42;42.60;;;35.20;;
57297;SDS011;43147;50.972;18.210;2022-08-23T11:21:03;47.80;;;37.20;;
57297;SDS011;43147;50.972;18.210;2022-08-23T11:26:08;50.80;;;38.90;;
57297;SDS011;43147;50.972;18.210;2022-08-23T11:28:38;46.30;;;37.10;;
57297;SDS011;43147;50.972;18.210;2022-08-23T11:36:19;40.30;;;34.50;;
57297;SDS011;43147;50.972;18.210;2022-08-23T11:48:58;41.20;;;32.90;;
57297;SDS011;43147;50.972;18.210;2022-08-23T11:54:26;37.70;;;31.80;;
57297;SDS011;43147;50.972;18.210;2022-08-23T12:18:53;35.50;;;28.90;;
57297;SDS011;43147;50.972;18.210;2022-08-23T12:40:30;36.40;;;31.00;;
57297;SDS011;43147;50.972;18.210;2022-08-23T12:43:05;38.90;;;31.80;;
57297;SDS011;43147;50.972;18.210;2022-08-23T12:45:46;40.90;;;32.40;;
57297;SDS011;43147;50.972;18.210;2022-08-23T12:48:18;37.10;;;32.10;;
57297;SDS011;43147;50.972;18.210;2022-08-23T12:50:51;40.00;;;32.10;;
57297;SDS011;43147;50.972;18.210;2022-08-23T12:53:36;42.50;;;31.80;;
57297;SDS011;43147;50.972;18.210;2022-08-23T12:56:10;35.20;;;31.10;;
57297;SDS011;43147;50.972;18.210;2022-08-23T12:58:50;37.00;;;31.10;;
57297;SDS011;43147;50.972;18.210;2022-08-23T13:01:24;34.00;;;30.40;;
57297;SDS011;43147;50.972;18.210;2022-08-23T13:03:54;37.40;;;29.80;;
57297;SDS011;43147;50.972;18.210;2022-08-23T13:06:25;34.80;;;30.00;;
57297;SDS011;43147;50.972;18.210;2022-08-23T13:09:06;35.30;;;31.40;;
57297;SDS011;43147;50.972;18.210;2022-08-23T13:11:37;38.10;;;32.00;;
57297;SDS011;43147;50.972;18.210;2022-08-23T13:19:17;33.10;;;29.80;;
57297;SDS011;43147;50.972;18.210;2022-08-23T13:25:02;35.20;;;30.60;;
57297;SDS011;43147;50.972;18.210;2022-08-23T13:27:33;37.30;;;29.20;;
57297;SDS011;43147;50.972;18.210;2022-08-23T13:32:45;28.00;;;25.10;;
57297;SDS011;43147;50.972;18.210;2022-08-23T13:37:48;27.80;;;25.00;;
57297;SDS011;43147;50.972;18.210;2022-08-23T13:40:17;25.70;;;22.80;;
57297;SDS011;43147;50.972;18.210;2022-08-23T13:42:47;29.40;;;24.70;;
57297;SDS011;43147;50.972;18.210;2022-08-23T13:45:27;27.20;;;24.50;;
57297;SDS011;43147;50.972;18.210;2022-08-23T13:48:19;28.20;;;25.20;;
57297;SDS011;43147;50.972;18.210;2022-08-23T13:50:44;26.60;;;22.80;;
57297;SDS011;43147;50.972;18.210;2022-08-23T13:53:10;27.10;;;24.30;;
57297;SDS011;43147;50.972;18.210;2022-08-23T13:55:45;25.80;;;22.00;;
57297;SDS011;43147;50.972;18.210;2022-08-23T13:58:14;29.00;;;21.80;;
57297;SDS011;43147;50.972;18.210;2022-08-23T14:00:49;24.80;;;22.10;;
57297;SDS011;43147;50.972;18.210;2022-08-23T14:03:14;30.50;;;22.90;;
57297;SDS011;43147;50.972;18.210;2022-08-23T14:05:41;26.40;;;22.60;;
57297;SDS011;43147;50.972;18.210;2022-08-23T14:08:06;26.60;;;23.50;;
57297;SDS011;43147;50.972;18.210;2022-08-23T14:10:34;32.30;;;25.40;;
57297;SDS011;43147;50.972;18.210;2022-08-23T14:13:00;26.10;;;23.30;;
57297;SDS011;43147;50.972;18.210;2022-08-23T14:15:26;27.30;;;24.60;;
57297;SDS011;43147;50.972;18.210;2022-08-23T14:17:52;26.70;;;24.00;;
57297;SDS011;43147;50.972;18.210;2022-08-23T14:20:19;27.30;;;24.40;;
57297;SDS011;43147;50.972;18.210;2022-08-23T14:22:46;28.70;;;25.70;;
57297;SDS011;43147;50.972;18.210;2022-08-23T14:25:12;27.10;;;23.30;;
57297;SDS011;43147;50.972;18.210;2022-08-23T14:27:39;26.20;;;23.50;;
57297;SDS011;43147;50.972;18.210;2022-08-23T14:30:06;29.50;;;25.20;;
57297;SDS011;43147;50.972;18.210;2022-08-23T14:32:33;29.50;;;24.80;;
57297;SDS011;43147;50.972;18.210;2022-08-23T14:34:59;28.20;;;25.40;;
57297;SDS011;43147;50.972;18.210;2022-08-23T14:37:25;28.20;;;25.40;;
57297;SDS011;43147;50.972;18.210;2022-08-23T14:39:50;29.50;;;26.50;;
57297;SDS011;43147;50.972;18.210;2022-08-23T14:42:19;28.80;;;25.90;;
57297;SDS011;43147;50.972;18.210;2022-08-23T14:44:46;30.50;;;27.30;;
57297;SDS011;43147;50.972;18.210;2022-08-23T14:47:11;29.20;;;26.10;;
57297;SDS011;43147;50.972;18.210;2022-08-23T14:49:38;32.30;;;25.70;;
57297;SDS011;43147;50.972;18.210;2022-08-23T14:52:04;30.40;;;27.10;;
57297;SDS011;43147;50.972;18.210;2022-08-23T14:54:29;28.30;;;25.30;;
57297;SDS011;43147;50.972;18.210;2022-08-23T14:56:56;28.20;;;24.80;;
57297;SDS011;43147;50.972;18.210;2022-08-23T14:59:21;29.10;;;26.10;;
57297;SDS011;43147;50.972;18.210;2022-08-23T15:01:48;29.20;;;26.10;;
57297;SDS011;43147;50.972;18.210;2022-08-23T15:04:16;30.90;;;27.40;;
57297;SDS011;43147;50.972;18.210;2022-08-23T15:06:42;32.20;;;28.90;;
57297;SDS011;43147;50.972;18.210;2022-08-23T15:09:09;34.20;;;30.40;;
57297;SDS011;43147;50.972;18.210;2022-08-23T15:11:34;36.80;;;30.60;;
57297;SDS011;43147;50.972;18.210;2022-08-23T15:14:00;35.70;;;30.10;;
57297;SDS011;43147;50.972;18.210;2022-08-23T15:16:26;38.20;;;32.70;;
57297;SDS011;43147;50.972;18.210;2022-08-23T15:18:52;35.70;;;32.00;;
57297;SDS011;43147;50.972;18.210;2022-08-23T15:21:19;40.20;;;34.60;;
57297;SDS011;43147;50.972;18.210;2022-08-23T15:23:45;41.30;;;36.30;;
57297;SDS011;43147;50.972;18.210;2022-08-23T15:26:11;40.50;;;35.00;;
57297;SDS011;43147;50.972;18.210;2022-08-23T15:28:39;40.10;;;33.50;;
57297;SDS011;43147;50.972;18.210;2022-08-23T15:31:05;37.40;;;31.60;;
57297;SDS011;43147;50.972;18.210;2022-08-23T15:33:31;39.30;;;33.60;;
57297;SDS011;43147;50.972;18.210;2022-08-23T15:35:58;38.00;;;33.80;;
57297;SDS011;43147;50.972;18.210;2022-08-23T15:38:26;36.30;;;29.70;;
57297;SDS011;43147;50.972;18.210;2022-08-23T15:40:52;30.40;;;27.20;;
57297;SDS011;43147;50.972;18.210;2022-08-23T15:43:19;38.80;;;27.10;;
57297;SDS011;43147;50.972;18.210;2022-08-23T15:45:45;30.30;;;27.00;;
57297;SDS011;43147;50.972;18.210;2022-08-23T15:48:17;37.60;;;29.30;;
57297;SDS011;43147;50.972;18.210;2022-08-23T15:50:46;37.50;;;30.50;;
57297;SDS011;43147;50.972;18.210;2022-08-23T15:53:13;37.90;;;33.00;;
57297;SDS011;43147;50.972;18.210;2022-08-23T15:55:40;35.30;;;31.10;;
57297;SDS011;43147;50.972;18.210;2022-08-23T15:58:06;37.40;;;31.50;;
57297;SDS011;43147;50.972;18.210;2022-08-23T16:00:32;41.50;;;29.70;;
57297;SDS011;43147;50.972;18.210;2022-08-23T16:02:58;35.20;;;30.00;;
57297;SDS011;43147;50.972;18.210;2022-08-23T16:05:23;39.20;;;30.00;;
57297;SDS011;43147;50.972;18.210;2022-08-23T16:07:52;41.10;;;31.90;;
57297;SDS011;43147;50.972;18.210;2022-08-23T16:10:19;43.00;;;31.80;;
57297;SDS011;43147;50.972;18.210;2022-08-23T16:12:45;31.40;;;27.60;;
57297;SDS011;43147;50.972;18.210;2022-08-23T16:15:11;32.30;;;28.80;;
57297;SDS011;43147;50.972;18.210;2022-08-23T16:17:39;36.00;;;27.90;;
57297;SDS011;43147;50.972;18.210;2022-08-23T16:20:06;35.00;;;29.40;;
57297;SDS011;43147;50.972;18.210;2022-08-23T16:22:34;32.40;;;28.40;;
57297;SDS011;43147;50.972;18.210;2022-08-23T16:25:01;31.40;;;25.90;;
57297;SDS011;43147;50.972;18.210;2022-08-23T16:27:27;32.90;;;27.80;;
57297;SDS011;43147;50.972;18.210;2022-08-23T16:29:55;34.20;;;28.30;;
57297;SDS011;43147;50.972;18.210;2022-08-23T16:32:21;33.80;;;27.30;;